Time;durP1;ratioP1;P1;durP2;ratioP2;P2;SDS_P1;SDS_P2;PMS_P1;PMS_P2;Temp;Humidity;BMP_temperature;BMP_pressure;BME280_temperature;BME280_humidity;BME280_pressure;Samples;Min_cycle;Max_cycle;Signal;HPM_P1;HPM_P2
2023/08/10 00:00:15;;;;;;;9.90;4.50;;;19.80;99.90;;;;;;4068595;29;20131;-55
2023/08/10 00:02:18;;;;;;;5.00;3.53;;;19.70;99.90;;;;;;4069540;29;20058;-55
2023/08/10 00:04:20;;;;;;;7.18;3.70;;;19.80;99.90;;;;;;4068030;29;20055;-55
2023/08/10 00:06:23;;;;;;;7.55;4.10;;;19.70;99.90;;;;;;4069477;29;20044;-55
2023/08/10 00:08:25;;;;;;;7.70;4.25;;;19.60;99.90;;;;;;4069286;29;20059;-55
2023/08/10 00:10:27;;;;;;;5.78;3.63;;;19.60;99.90;;;;;;4067859;29;20139;-52
2023/08/10 00:12:30;;;;;;;8.10;3.95;;;19.60;99.90;;;;;;4068941;29;20072;-53
2023/08/10 00:14:32;;;;;;;6.05;3.78;;;19.50;99.90;;;;;;4069330;29;20075;-52
2023/08/10 00:16:34;;;;;;;7.97;3.55;;;19.60;99.90;;;;;;4069255;29;20123;-54
2023/08/10 00:18:36;;;;;;;9.85;3.45;;;19.50;99.90;;;;;;4068908;29;20475;-54
2023/08/10 00:20:38;;;;;;;5.32;3.63;;;19.50;99.90;;;;;;4068357;29;20080;-54
2023/08/10 00:22:42;;;;;;;8.25;3.33;;;19.50;99.90;;;;;;4067756;29;20100;-51
2023/08/10 00:24:44;;;;;;;4.20;3.50;;;19.50;99.90;;;;;;4067682;29;20419;-53
2023/08/10 00:26:46;;;;;;;5.60;2.95;;;19.40;99.90;;;;;;4069031;29;20054;-52
2023/08/10 00:28:49;;;;;;;4.65;3.33;;;19.50;99.90;;;;;;4068771;29;20055;-52
2023/08/10 00:30:51;;;;;;;6.63;2.95;;;19.50;99.90;;;;;;4068279;29;20056;-54
2023/08/10 00:32:54;;;;;;;5.55;3.90;;;19.60;99.90;;;;;;4068973;29;20048;-55
2023/08/10 00:34:57;;;;;;;8.20;4.07;;;19.50;99.90;;;;;;4068955;29;20048;-55
2023/08/10 00:36:59;;;;;;;8.18;3.80;;;19.60;99.90;;;;;;4068933;29;20055;-55
2023/08/10 00:39:03;;;;;;;8.35;4.15;;;19.60;99.90;;;;;;4068428;29;20055;-52
2023/08/10 00:41:06;;;;;;;4.38;3.47;;;19.60;99.90;;;;;;4066809;29;20483;-53
2023/08/10 00:43:08;;;;;;;6.70;3.72;;;19.60;99.90;;;;;;4068298;29;20474;-53
2023/08/10 00:45:10;;;;;;;12.25;3.95;;;19.60;99.90;;;;;;4068803;29;20510;-53
2023/08/10 00:47:14;;;;;;;5.80;3.97;;;19.50;99.90;;;;;;4068760;29;20059;-54
2023/08/10 00:49:16;;;;;;;5.18;4.03;;;19.50;99.90;;;;;;4068423;29;20095;-56
2023/08/10 00:51:19;;;;;;;4.85;3.42;;;19.40;99.90;;;;;;4068785;29;20048;-55
2023/08/10 00:53:21;;;;;;;10.65;4.50;;;19.40;99.90;;;;;;4068350;29;20052;-52
2023/08/10 00:55:25;;;;;;;7.72;4.50;;;19.30;99.90;;;;;;4068660;29;20048;-52
2023/08/10 00:57:28;;;;;;;7.18;4.45;;;19.30;99.90;;;;;;4068380;29;20052;-55
2023/08/10 00:59:31;;;;;;;5.97;3.75;;;19.30;99.90;;;;;;4067554;29;20056;-55
2023/08/10 01:01:34;;;;;;;6.25;3.80;;;19.40;99.90;;;;;;4068156;29;20411;-56
2023/08/10 01:03:36;;;;;;;7.15;3.65;;;19.30;99.90;;;;;;4068256;29;20143;-55
2023/08/10 01:05:45;;;;;;;11.45;3.90;;;19.30;99.90;;;;;;4068462;29;20059;-55
2023/08/10 01:07:55;;;;;;;5.68;3.63;;;19.40;99.90;;;;;;4067932;29;20123;-56
2023/08/10 01:10:06;;;;;;;9.38;4.10;;;19.30;99.90;;;;;;4067635;29;20071;-55
2023/08/10 01:12:19;;;;;;;5.38;3.88;;;19.30;99.90;;;;;;4068193;29;20055;-55
2023/08/10 01:14:35;;;;;;;8.48;3.92;;;19.30;99.90;;;;;;4082584;29;20510;-55
2023/08/10 01:16:41;;;;;;;7.20;4.32;;;19.30;99.90;;;;;;4068396;29;20056;-55
2023/08/10 01:18:44;;;;;;;7.40;3.88;;;19.30;99.90;;;;;;4068103;29;20075;-53
2023/08/10 01:20:48;;;;;;;8.18;4.05;;;19.30;99.90;;;;;;4066355;29;20437;-53
2023/08/10 01:23:00;;;;;;;7.55;4.00;;;19.30;99.90;;;;;;4067958;29;20431;-52
2023/08/10 01:25:08;;;;;;;5.32;3.72;;;19.30;99.90;;;;;;4068170;29;20087;-52
2023/08/10 01:27:12;;;;;;;7.82;4.40;;;19.30;99.90;;;;;;4068119;29;20059;-52
2023/08/10 01:29:15;;;;;;;9.70;4.22;;;19.20;99.90;;;;;;4067943;29;20086;-53
2023/08/10 01:31:17;;;;;;;8.35;4.50;;;19.20;99.90;;;;;;4067412;29;20131;-53
2023/08/10 01:33:19;;;;;;;8.63;3.97;;;19.20;99.90;;;;;;4068279;29;20447;-53
2023/08/10 01:35:21;;;;;;;8.45;4.32;;;19.20;99.90;;;;;;4066968;29;20455;-53
2023/08/10 01:37:24;;;;;;;8.20;4.50;;;19.10;99.90;;;;;;4067892;29;20507;-53
2023/08/10 01:39:26;;;;;;;6.80;4.43;;;19.10;99.90;;;;;;4067526;29;20092;-57
2023/08/10 01:41:29;;;;;;;6.70;4.25;;;19.10;99.90;;;;;;4067827;29;20470;-55
2023/08/10 01:43:31;;;;;;;6.88;3.75;;;19.10;99.90;;;;;;4068195;29;20458;-55
2023/08/10 01:45:33;;;;;;;8.10;3.80;;;19.10;99.90;;;;;;4067954;29;20055;-55
2023/08/10 01:47:48;;;;;;;5.68;3.95;;;19.10;99.90;;;;;;4068291;29;20483;-55
2023/08/10 01:49:56;;;;;;;9.15;3.95;;;19.00;99.90;;;;;;4067354;29;20055;-53
2023/08/10 01:52:00;;;;;;;7.43;3.60;;;19.00;99.90;;;;;;4067778;29;20047;-54
2023/08/10 01:54:03;;;;;;;;;;;18.90;99.90;;;;;;4069574;29;20126;-54
2023/08/10 01:56:06;;;;;;;6.68;3.90;;;18.90;99.90;;;;;;4071223;29;20425;-54
2023/08/10 01:58:10;;;;;;;5.63;3.90;;;18.90;99.90;;;;;;4070856;29;20523;-53
2023/08/10 02:00:12;;;;;;;7.93;3.33;;;18.80;99.90;;;;;;4070177;29;20139;-54
2023/08/10 02:02:15;;;;;;;7.75;3.85;;;18.90;99.90;;;;;;4071258;29;20090;-53
2023/08/10 02:04:17;;;;;;;6.13;3.53;;;18.80;99.90;;;;;;4071035;29;20406;-54
2023/08/10 02:06:19;;;;;;;6.40;3.65;;;18.90;99.90;;;;;;4070725;29;20055;-53
2023/08/10 02:08:21;;;;;;;4.97;3.67;;;18.80;99.90;;;;;;4069643;29;20108;-52
2023/08/10 02:10:23;;;;;;;7.60;3.83;;;18.90;99.90;;;;;;4069942;29;20052;-53
2023/08/10 02:12:26;;;;;;;6.30;4.22;;;18.80;99.90;;;;;;4069994;29;20045;-52
2023/08/10 02:14:29;;;;;;;7.85;3.90;;;18.90;99.90;;;;;;4069925;29;20043;-51
2023/08/10 02:16:31;;;;;;;6.53;3.53;;;18.80;99.90;;;;;;4069850;29;20052;-52
2023/08/10 02:18:33;;;;;;;5.97;3.90;;;18.80;99.90;;;;;;4069720;29;20052;-52
2023/08/10 02:20:35;;;;;;;9.50;3.85;;;18.80;99.90;;;;;;4068597;29;20055;-53
2023/08/10 02:22:38;;;;;;;7.15;4.55;;;18.70;99.90;;;;;;4069740;29;20044;-53
2023/08/10 02:24:45;;;;;;;6.90;3.72;;;18.80;99.90;;;;;;4068550;29;20441;-54
2023/08/10 02:26:47;;;;;;;8.00;3.85;;;18.70;99.90;;;;;;4069902;29;20081;-51
2023/08/10 02:28:49;;;;;;;8.65;4.03;;;18.70;99.90;;;;;;4069803;29;20130;-52
2023/08/10 02:30:53;;;;;;;6.63;3.95;;;18.60;99.90;;;;;;4068954;29;20052;-54
2023/08/10 02:32:55;;;;;;;8.93;3.92;;;18.60;99.90;;;;;;4069727;29;20418;-54
2023/08/10 02:34:57;;;;;;;5.88;3.70;;;18.60;99.90;;;;;;4069457;29;20056;-54
2023/08/10 02:36:59;;;;;;;6.40;3.67;;;18.60;99.90;;;;;;4069859;29;20076;-52
2023/08/10 02:39:04;;;;;;;6.28;4.00;;;18.60;99.90;;;;;;4069777;29;20144;-52
2023/08/10 02:41:06;;;;;;;6.50;3.90;;;18.50;99.90;;;;;;4068996;29;20119;-52
2023/08/10 02:43:08;;;;;;;7.05;3.92;;;18.50;99.90;;;;;;4069561;29;20127;-52
2023/08/10 02:45:12;;;;;;;5.57;3.65;;;18.50;99.90;;;;;;4069641;29;20059;-52
2023/08/10 02:47:15;;;;;;;7.28;4.30;;;18.40;99.90;;;;;;4069620;29;20103;-52
2023/08/10 02:49:18;;;;;;;10.73;4.40;;;18.40;99.90;;;;;;4069416;29;20079;-52
2023/08/10 02:51:20;;;;;;;5.93;4.55;;;18.50;99.90;;;;;;4068896;29;20052;-54
2023/08/10 02:53:22;;;;;;;7.93;3.97;;;18.40;99.90;;;;;;4069537;29;20055;-55
2023/08/10 02:55:24;;;;;;;9.60;4.03;;;18.40;99.90;;;;;;4069330;29;20123;-54
2023/08/10 02:57:26;;;;;;;8.25;4.10;;;18.30;99.90;;;;;;4069442;29;20072;-55
2023/08/10 02:59:28;;;;;;;6.80;4.03;;;18.40;99.90;;;;;;4069402;29;20056;-54
2023/08/10 03:01:30;;;;;;;8.20;4.65;;;18.30;99.90;;;;;;4068927;29;20055;-53
2023/08/10 03:03:34;;;;;;;5.65;4.60;;;18.30;99.90;;;;;;4069452;29;20052;-53
2023/08/10 03:05:36;;;;;;;9.45;4.03;;;18.40;99.90;;;;;;4069023;29;20048;-53
2023/08/10 03:07:38;;;;;;;7.13;4.47;;;18.30;99.90;;;;;;4069512;29;20060;-53
2023/08/10 03:09:44;;;;;;;4.68;4.18;;;18.30;99.90;;;;;;4069160;29;20072;-54
2023/08/10 03:11:46;;;;;;;9.00;5.00;;;18.30;99.90;;;;;;4069292;29;20056;-53
2023/08/10 03:13:48;;;;;;;9.70;5.15;;;18.30;99.90;;;;;;4070065;29;20055;-53
2023/08/10 03:15:52;;;;;;;6.07;4.65;;;18.30;99.90;;;;;;4068767;29;20091;-55
2023/08/10 03:17:54;;;;;;;7.55;5.07;;;18.30;99.90;;;;;;4069785;29;20114;-52
2023/08/10 03:19:58;;;;;;;11.10;4.72;;;18.30;99.90;;;;;;4069300;29;20451;-53
2023/08/10 03:22:00;;;;;;;10.95;5.13;;;18.20;99.90;;;;;;4069862;29;20127;-55
2023/08/10 03:24:02;;;;;;;7.00;4.70;;;18.20;99.90;;;;;;4069939;29;20048;-52
2023/08/10 03:26:04;;;;;;;11.43;5.38;;;18.10;99.90;;;;;;4070049;29;20048;-50
2023/08/10 03:28:06;;;;;;;9.60;5.20;;;18.10;99.90;;;;;;4069673;29;20136;-51
2023/08/10 03:30:09;;;;;;;10.48;5.18;;;18.00;99.90;;;;;;4068993;29;20055;-51
2023/08/10 03:32:11;;;;;;;7.93;5.05;;;18.10;99.90;;;;;;4069538;29;20052;-54
2023/08/10 03:34:13;;;;;;;8.10;4.93;;;18.10;99.90;;;;;;4069947;29;20052;-55
2023/08/10 03:36:19;;;;;;;11.98;5.25;;;18.00;99.90;;;;;;4068658;29;20433;-54
2023/08/10 03:38:21;;;;;;;14.27;5.88;;;18.00;99.90;;;;;;4069892;29;20048;-53
2023/08/10 03:40:23;;;;;;;14.15;4.75;;;18.00;99.90;;;;;;4069171;29;20083;-56
2023/08/10 03:42:25;;;;;;;7.55;5.10;;;18.00;99.90;;;;;;4069532;29;20044;-53
2023/08/10 03:44:27;;;;;;;9.32;5.10;;;17.90;99.90;;;;;;4069469;29;20491;-53
2023/08/10 03:46:29;;;;;;;6.47;4.47;;;17.90;99.90;;;;;;4069456;29;20052;-53
2023/08/10 03:48:32;;;;;;;10.00;5.10;;;18.00;99.90;;;;;;4069927;29;20048;-52
2023/08/10 03:50:33;;;;;;;9.77;5.18;;;17.90;99.90;;;;;;4068688;29;20071;-53
2023/08/10 03:52:37;;;;;;;7.22;4.47;;;17.90;99.90;;;;;;4069422;29;20057;-53
2023/08/10 03:54:40;;;;;;;10.45;4.72;;;17.90;99.90;;;;;;4069419;29;20052;-52
2023/08/10 03:56:42;;;;;;;6.50;4.88;;;17.90;99.90;;;;;;4069373;29;20454;-52
2023/08/10 03:58:44;;;;;;;6.20;4.00;;;17.90;99.90;;;;;;4069428;29;20067;-53
2023/08/10 04:00:47;;;;;;;8.80;4.93;;;17.90;99.90;;;;;;4068254;29;20450;-52
2023/08/10 04:02:49;;;;;;;6.00;4.00;;;17.90;99.90;;;;;;4069301;29;20056;-52
2023/08/10 04:04:51;;;;;;;8.43;4.43;;;17.90;99.90;;;;;;4069309;29;20469;-53
2023/08/10 04:06:53;;;;;;;8.48;4.15;;;17.90;99.90;;;;;;4083794;29;20427;-53
2023/08/10 04:08:56;;;;;;;5.60;3.92;;;17.90;99.90;;;;;;4069290;29;20054;-53
2023/08/10 04:10:59;;;;;;;7.18;3.83;;;17.90;99.90;;;;;;4068351;29;20422;-52
2023/08/10 04:13:01;;;;;;;9.38;4.20;;;17.80;99.90;;;;;;4069297;29;20064;-52
2023/08/10 04:15:08;;;;;;;4.38;3.45;;;17.80;99.90;;;;;;4068533;29;20154;-52
2023/08/10 04:17:10;;;;;;;7.97;3.83;;;17.90;99.90;;;;;;4068465;29;20072;-52
2023/08/10 04:19:12;;;;;;;8.27;3.92;;;17.80;99.90;;;;;;4068904;29;20059;-51
2023/08/10 04:21:14;;;;;;;8.18;4.22;;;17.80;99.90;;;;;;4068218;29;20066;-54
2023/08/10 04:23:16;;;;;;;7.22;4.00;;;17.80;99.90;;;;;;4068890;29;20154;-54
2023/08/10 04:25:20;;;;;;;9.70;3.70;;;17.80;99.90;;;;;;4068912;29;20114;-53
2023/08/10 04:27:22;;;;;;;4.80;3.80;;;17.80;99.90;;;;;;4069060;29;20075;-54
2023/08/10 04:29:26;;;;;;;10.18;3.80;;;17.70;99.90;;;;;;4067512;29;20047;-54
2023/08/10 04:31:29;;;;;;;6.53;3.60;;;17.70;99.90;;;;;;4068073;29;20083;-54
2023/08/10 04:33:31;;;;;;;6.05;4.13;;;17.70;99.90;;;;;;4068778;29;20083;-55
2023/08/10 04:35:33;;;;;;;9.10;3.97;;;17.70;99.90;;;;;;4067707;29;20091;-54
2023/08/10 04:37:36;;;;;;;7.80;3.80;;;17.70;99.90;;;;;;4068798;29;20048;-55
2023/08/10 04:39:38;;;;;;;10.73;4.80;;;17.70;99.90;;;;;;4068594;29;20495;-54
2023/08/10 04:41:41;;;;;;;6.68;4.03;;;17.70;99.90;;;;;;4068056;29;20060;-53
2023/08/10 04:43:43;;;;;;;5.93;3.03;;;17.70;99.90;;;;;;4068634;29;20048;-54
2023/08/10 04:45:46;;;;;;;4.63;3.72;;;17.70;99.90;;;;;;4068607;29;20044;-53
2023/08/10 04:47:49;;;;;;;6.93;3.30;;;17.70;99.90;;;;;;4068814;29;20530;-54
2023/08/10 04:49:51;;;;;;;6.35;3.80;;;17.70;99.90;;;;;;4068553;29;20119;-54
2023/08/10 04:51:53;;;;;;;10.30;4.15;;;17.70;99.90;;;;;;4066803;29;20059;-54
2023/08/10 04:53:55;;;;;;;6.78;3.92;;;17.70;99.90;;;;;;4068587;29;20052;-54
2023/08/10 04:55:57;;;;;;;7.68;4.15;;;17.70;99.90;;;;;;4068936;29;20407;-54
2023/08/10 04:58:00;;;;;;;9.52;3.58;;;17.70;99.90;;;;;;4068493;29;20074;-54
2023/08/10 05:00:09;;;;;;;5.95;3.33;;;17.70;99.90;;;;;;4067851;29;20080;-55
2023/08/10 05:02:11;;;;;;;8.45;3.83;;;17.70;99.90;;;;;;4068161;29;20080;-55
2023/08/10 05:04:14;;;;;;;5.65;3.28;;;17.70;99.90;;;;;;4068375;29;20048;-53
2023/08/10 05:06:17;;;;;;;7.25;3.70;;;17.70;99.90;;;;;;4068643;29;20044;-54
2023/08/10 05:08:21;;;;;;;6.00;3.45;;;17.80;99.90;;;;;;4068483;29;20052;-53
2023/08/10 05:10:23;;;;;;;6.28;3.33;;;17.80;99.90;;;;;;4067402;29;20060;-54
2023/08/10 05:12:25;;;;;;;6.18;4.07;;;17.80;99.90;;;;;;4068265;29;20059;-54
2023/08/10 05:14:29;;;;;;;7.60;3.80;;;17.80;99.90;;;;;;4066863;29;20073;-52
2023/08/10 05:16:31;;;;;;;8.18;3.42;;;17.80;99.90;;;;;;4068356;29;20139;-51
2023/08/10 05:18:34;;;;;;;9.13;4.07;;;17.80;99.90;;;;;;4068369;29;20052;-51
2023/08/10 05:20:38;;;;;;;10.88;3.92;;;17.90;99.90;;;;;;4067710;29;20060;-52
2023/08/10 05:22:42;;;;;;;13.50;4.15;;;17.80;99.90;;;;;;4068250;29;20127;-52
2023/08/10 05:24:44;;;;;;;11.80;4.10;;;17.80;99.90;;;;;;4068168;29;20111;-52
2023/08/10 05:26:46;;;;;;;5.47;4.07;;;17.90;99.90;;;;;;4068245;29;20052;-51
2023/08/10 05:28:48;;;;;;;5.95;3.80;;;17.90;99.90;;;;;;4067522;29;20055;-51
2023/08/10 05:30:52;;;;;;;9.27;4.40;;;17.90;99.90;;;;;;4067386;29;20052;-51
2023/08/10 05:32:54;;;;;;;5.57;4.20;;;17.90;99.90;;;;;;4068253;29;20229;-52
2023/08/10 05:34:56;;;;;;;11.30;4.43;;;17.90;99.90;;;;;;4068369;29;20056;-52
2023/08/10 05:36:58;;;;;;;7.65;3.58;;;17.90;99.90;;;;;;4068052;29;20084;-51
2023/08/10 05:39:00;;;;;;;8.77;3.78;;;17.90;99.90;;;;;;4068134;29;20052;-52
2023/08/10 05:41:02;;;;;;;8.40;3.80;;;18.00;99.90;;;;;;4067477;29;20367;-51
2023/08/10 05:43:05;;;;;;;14.05;5.05;;;18.00;99.90;;;;;;4067718;29;20135;-53
2023/08/10 05:45:19;;;;;;;11.57;4.25;;;18.10;99.90;;;;;;4068119;29;20064;-52
2023/08/10 05:47:23;;;;;;;14.38;4.13;;;18.10;99.90;;;;;;4068080;29;20048;-52
2023/08/10 05:49:25;;;;;;;9.88;4.47;;;18.20;99.90;;;;;;4067834;29;20491;-52
2023/08/10 05:51:27;;;;;;;7.05;4.15;;;18.20;99.90;;;;;;4067131;29;20140;-51
2023/08/10 05:53:29;;;;;;;11.48;3.97;;;18.20;99.90;;;;;;4068003;29;20159;-52
2023/08/10 05:55:31;;;;;;;9.07;4.00;;;18.20;99.90;;;;;;4068026;29;20044;-51
2023/08/10 05:57:33;;;;;;;11.88;4.25;;;18.30;99.90;;;;;;4067688;29;20048;-51
2023/08/10 05:59:35;;;;;;;10.00;4.47;;;18.30;99.90;;;;;;4068034;29;20044;-50
2023/08/10 06:01:40;;;;;;;10.13;4.40;;;18.30;99.90;;;;;;4067143;29;20130;-52
2023/08/10 06:03:43;;;;;;;10.48;4.03;;;18.40;99.90;;;;;;4067828;29;20040;-52
2023/08/10 06:05:46;;;;;;;14.02;4.43;;;18.30;99.90;;;;;;4068110;29;20048;-57
2023/08/10 06:07:48;;;;;;;15.25;5.28;;;18.40;99.90;;;;;;4068326;29;20158;-52
2023/08/10 06:09:50;;;;;;;22.52;5.35;;;18.50;99.90;;;;;;4067911;29;20398;-52
2023/08/10 06:11:53;;;;;;;17.92;4.30;;;18.50;99.90;;;;;;4066607;29;20135;-51
2023/08/10 06:13:55;;;;;;;20.20;4.75;;;18.50;99.90;;;;;;4082088;29;20107;-53
2023/08/10 06:15:57;;;;;;;16.55;4.50;;;18.60;99.90;;;;;;4067961;29;20405;-52
2023/08/10 06:17:59;;;;;;;12.65;4.40;;;18.70;99.90;;;;;;4067686;29;20074;-51
2023/08/10 06:20:09;;;;;;;11.02;4.63;;;18.70;99.90;;;;;;4067716;29;20048;-53
2023/08/10 06:22:12;;;;;;;11.15;4.70;;;18.70;99.90;;;;;;4067111;29;20044;-53
2023/08/10 06:24:16;;;;;;;11.20;4.30;;;18.70;99.90;;;;;;4067683;29;20059;-54
2023/08/10 06:26:18;;;;;;;13.32;4.35;;;18.70;99.90;;;;;;4067407;29;20067;-53
2023/08/10 06:28:20;;;;;;;8.82;4.43;;;18.70;99.90;;;;;;4066505;29;20060;-53
2023/08/10 06:30:22;;;;;;;8.10;4.32;;;18.70;99.90;;;;;;4067425;29;20054;-54
2023/08/10 06:32:25;;;;;;;8.90;3.80;;;18.80;99.90;;;;;;4067067;29;20052;-53
2023/08/10 06:34:27;;;;;;;17.23;4.88;;;18.80;99.90;;;;;;4067667;29;20103;-52
2023/08/10 06:36:31;;;;;;;8.60;3.72;;;18.90;99.90;;;;;;4066554;29;20048;-53
2023/08/10 06:38:36;;;;;;;11.77;4.05;;;19.00;99.90;;;;;;4067921;29;20094;-53
2023/08/10 06:40:38;;;;;;;;;;;19.10;99.90;;;;;;4068641;29;20084;-53
2023/08/10 06:42:40;;;;;;;10.15;3.60;;;19.10;99.90;;;;;;4070276;29;20275;-51
2023/08/10 06:44:43;;;;;;;7.63;4.20;;;19.10;99.90;;;;;;4070342;29;20052;-51
2023/08/10 06:46:45;;;;;;;7.72;3.88;;;19.20;99.90;;;;;;4070361;29;20131;-52
2023/08/10 06:48:47;;;;;;;8.02;4.05;;;19.30;99.90;;;;;;4070122;29;20131;-52
2023/08/10 06:50:49;;;;;;;6.25;3.58;;;19.20;99.90;;;;;;4069810;29;20407;-54
2023/08/10 06:52:53;;;;;;;11.20;3.85;;;19.30;99.90;;;;;;4070384;29;20079;-55
2023/08/10 06:54:55;;;;;;;9.18;3.63;;;19.40;99.90;;;;;;4070154;29;20052;-54
2023/08/10 06:56:58;;;;;;;13.35;4.13;;;19.50;99.90;;;;;;4070364;29;20414;-51
2023/08/10 06:59:00;;;;;;;8.98;3.72;;;19.70;99.90;;;;;;4070524;29;20119;-53
2023/08/10 07:01:05;;;;;;;;;;;19.80;99.90;;;;;;4070174;29;20052;-55
2023/08/10 07:03:08;;;;;;;18.13;4.63;;;19.90;99.90;;;;;;4070183;29;20365;-56
2023/08/10 07:05:10;;;;;;;12.20;5.00;;;20.00;99.90;;;;;;4068911;29;20044;-53
2023/08/10 07:07:14;;;;;;;16.48;4.30;;;20.10;99.80;;;;;;4070208;29;20096;-53
2023/08/10 07:09:17;;;;;;;23.25;6.28;;;20.10;99.60;;;;;;4069891;29;20570;-55
2023/08/10 07:11:22;;;;;;;14.73;5.55;;;20.20;99.70;;;;;;4069384;29;20063;-54
2023/08/10 07:13:24;;;;;;;22.02;5.63;;;20.30;99.60;;;;;;4070202;29;20048;-55
2023/08/10 07:15:26;;;;;;;20.38;5.13;;;20.50;99.40;;;;;;4070087;29;20060;-55
2023/08/10 07:17:28;;;;;;;41.00;6.00;;;20.60;99.00;;;;;;4070024;29;20071;-55
2023/08/10 07:19:30;;;;;;;83.40;10.48;;;20.60;99.10;;;;;;4069961;29;20052;-52
2023/08/10 07:21:32;;;;;;;50.13;6.65;;;20.70;98.90;;;;;;4069079;29;20108;-53
2023/08/10 07:23:34;;;;;;;71.68;8.35;;;20.60;98.70;;;;;;4069462;29;20048;-54
2023/08/10 07:25:38;;;;;;;62.17;8.70;;;20.70;98.70;;;;;;4070023;29;20056;-52
2023/08/10 07:27:40;;;;;;;50.05;7.38;;;20.80;98.70;;;;;;4070192;29;20048;-52
2023/08/10 07:29:42;;;;;;;21.27;4.80;;;20.80;98.70;;;;;;4070435;29;20052;-52
2023/08/10 07:31:44;;;;;;;44.15;6.55;;;20.90;98.50;;;;;;4069832;29;20526;-53
2023/08/10 07:33:46;;;;;;;32.92;5.88;;;21.00;98.40;;;;;;4070393;29;20052;-52
2023/08/10 07:35:49;;;;;;;27.80;5.18;;;21.10;98.30;;;;;;4070116;29;20044;-52
2023/08/10 07:37:51;;;;;;;17.20;4.45;;;21.20;98.10;;;;;;4071084;29;20052;-53
2023/08/10 07:39:53;;;;;;;19.38;4.15;;;21.10;98.00;;;;;;4070356;29;20164;-53
2023/08/10 07:41:57;;;;;;;13.80;3.50;;;21.20;98.10;;;;;;4069369;29;20063;-53
2023/08/10 07:43:58;;;;;;;8.90;3.75;;;21.30;97.80;;;;;;4070339;29;20048;-52
2023/08/10 07:46:00;;;;;;;12.52;3.97;;;21.40;97.80;;;;;;4069845;29;20048;-53
2023/08/10 07:48:03;;;;;;;9.10;3.63;;;21.50;97.70;;;;;;4070198;29;20470;-53
2023/08/10 07:50:06;;;;;;;10.98;3.33;;;21.60;97.20;;;;;;4070720;29;20104;-52
2023/08/10 07:52:08;;;;;;;9.82;3.83;;;21.70;97.40;;;;;;4068376;29;20534;-53
2023/08/10 07:54:11;;;;;;;11.77;4.45;;;21.80;97.20;;;;;;4069486;29;20052;-54
2023/08/10 07:56:13;;;;;;;9.52;3.40;;;21.80;97.20;;;;;;4069317;29;20123;-54
2023/08/10 07:58:16;;;;;;;13.38;3.67;;;22.00;97.40;;;;;;4069328;29;20058;-55
2023/08/10 08:00:19;;;;;;;12.48;3.30;;;22.10;97.10;;;;;;4069359;29;20071;-51
2023/08/10 08:02:21;;;;;;;12.55;3.67;;;22.10;96.80;;;;;;4068520;29;20094;-55
2023/08/10 08:04:23;;;;;;;11.88;3.38;;;22.20;96.30;;;;;;4069497;29;20506;-54
2023/08/10 08:06:25;;;;;;;5.15;3.08;;;22.20;96.20;;;;;;4069199;29;20155;-54
2023/08/10 08:08:28;;;;;;;6.10;3.20;;;22.30;96.40;;;;;;4068997;29;20077;-53
2023/08/10 08:10:31;;;;;;;10.95;3.20;;;22.40;96.60;;;;;;4069050;29;20052;-53
2023/08/10 08:12:33;;;;;;;10.95;3.55;;;22.50;96.20;;;;;;4068713;29;20054;-53
2023/08/10 08:14:36;;;;;;;14.63;3.03;;;22.60;95.90;;;;;;4069210;29;20119;-52
2023/08/10 08:16:38;;;;;;;7.90;2.50;;;22.60;95.70;;;;;;4069271;29;20048;-52
2023/08/10 08:18:43;;;;;;;6.35;2.22;;;22.70;96.20;;;;;;4069345;29;20055;-52
2023/08/10 08:20:46;;;;;;;9.27;2.33;;;22.70;95.50;;;;;;4069062;29;20044;-52
2023/08/10 08:22:48;;;;;;;7.68;2.38;;;22.80;95.40;;;;;;4068931;29;20044;-55
2023/08/10 08:24:51;;;;;;;3.78;2.47;;;22.80;94.80;;;;;;4069256;29;20489;-53
2023/08/10 08:26:53;;;;;;;12.50;2.70;;;22.90;95.20;;;;;;4069052;29;20052;-52
2023/08/10 08:28:57;;;;;;;6.25;2.15;;;23.10;95.00;;;;;;4068971;29;20079;-53
2023/08/10 08:31:00;;;;;;;4.68;2.20;;;23.20;94.50;;;;;;4068499;29;20058;-55
2023/08/10 08:33:03;;;;;;;7.60;2.40;;;23.20;94.50;;;;;;4068236;29;20048;-53
2023/08/10 08:35:06;;;;;;;4.50;2.30;;;23.30;94.60;;;;;;4069090;29;20487;-52
2023/08/10 08:37:08;;;;;;;7.13;2.30;;;23.30;94.40;;;;;;4068579;29;20082;-53
2023/08/10 08:39:10;;;;;;;5.97;2.20;;;23.40;94.70;;;;;;4069079;29;20139;-53
2023/08/10 08:41:15;;;;;;;6.65;2.65;;;23.40;94.20;;;;;;4068221;29;20048;-54
2023/08/10 08:43:18;;;;;;;4.70;2.30;;;23.50;95.10;;;;;;4071024;29;20052;-54
2023/08/10 08:45:20;;;;;;;3.90;2.20;;;23.60;94.70;;;;;;4074638;29;20048;-52
2023/08/10 08:47:25;;;;;;;6.28;2.38;;;23.60;93.90;;;;;;4073393;29;20086;-53
2023/08/10 08:49:28;;;;;;;8.82;2.25;;;23.60;93.90;;;;;;4070037;29;20166;-54
2023/08/10 08:51:31;;;;;;;6.97;2.42;;;23.60;93.90;;;;;;4069304;29;20338;-61
2023/08/10 08:53:33;;;;;;;6.28;2.38;;;23.60;93.90;;;;;;4068945;29;20056;-53
2023/08/10 08:55:37;;;;;;;7.47;1.92;;;23.60;94.10;;;;;;4068510;29;20048;-53
2023/08/10 08:57:39;;;;;;;6.90;2.10;;;23.60;93.90;;;;;;4068761;29;20134;-53
2023/08/10 08:59:41;;;;;;;5.10;2.30;;;23.60;93.90;;;;;;4068338;29;20103;-53
2023/08/10 09:01:45;;;;;;;10.90;2.30;;;23.70;93.90;;;;;;4067839;29;20050;-53
2023/08/10 09:03:48;;;;;;;4.03;2.13;;;23.80;93.80;;;;;;4068249;29;20099;-53
2023/08/10 09:05:51;;;;;;;4.72;2.00;;;23.80;94.00;;;;;;4068190;29;20107;-53
2023/08/10 09:07:54;;;;;;;8.90;1.63;;;23.80;93.80;;;;;;4068701;29;20139;-53
2023/08/10 09:09:56;;;;;;;5.70;1.95;;;23.90;93.90;;;;;;4059176;29;20056;-52
2023/08/10 09:12:19;;;;;;;8.40;2.33;;;23.90;93.80;;;;;;4050560;29;20052;-53
2023/08/10 09:14:21;;;;;;;4.75;1.80;;;24.00;94.20;;;;;;4057328;29;20048;-54
2023/08/10 09:16:26;;;;;;;8.10;2.13;;;24.00;93.80;;;;;;4069257;29;20052;-52
2023/08/10 09:18:30;;;;;;;4.63;2.13;;;24.10;93.70;;;;;;4070695;29;20463;-53
2023/08/10 09:20:34;;;;;;;17.35;3.08;;;24.10;93.90;;;;;;4068588;29;20052;-51
2023/08/10 09:22:38;;;;;;;5.95;2.03;;;24.20;93.90;;;;;;4069802;29;20126;-52
2023/08/10 09:24:45;;;;;;;9.97;2.20;;;24.30;94.00;;;;;;4071959;29;20126;-54
2023/08/10 09:26:47;;;;;;;9.27;1.80;;;24.20;93.70;;;;;;4073122;29;20044;-55
2023/08/10 09:28:50;;;;;;;4.60;1.50;;;24.20;93.80;;;;;;4071904;29;20119;-55
2023/08/10 09:30:56;;;;;;;5.57;1.85;;;24.30;93.90;;;;;;4057674;29;20097;-55
2023/08/10 09:32:58;;;;;;;8.00;2.30;;;24.30;94.30;;;;;;4055398;29;20059;-55
2023/08/10 09:35:00;;;;;;;3.75;1.80;;;24.30;93.70;;;;;;4053422;29;20048;-55
2023/08/10 09:37:04;;;;;;;4.93;1.80;;;24.40;93.80;;;;;;4053622;29;20111;-54
2023/08/10 09:39:15;;;;;;;5.87;2.20;;;24.40;93.70;;;;;;4052680;29;20183;-56
2023/08/10 09:41:20;;;;;;;5.57;1.63;;;24.50;93.60;;;;;;4052140;29;20466;-54
2023/08/10 09:43:24;;;;;;;2.88;1.48;;;24.60;93.70;;;;;;4052506;29;20053;-55
2023/08/10 09:45:27;;;;;;;4.53;1.70;;;24.70;93.70;;;;;;4052589;29;20467;-55
2023/08/10 09:47:34;;;;;;;3.88;1.60;;;24.80;93.40;;;;;;4053247;29;20049;-55
2023/08/10 09:49:38;;;;;;;4.25;1.75;;;24.90;93.50;;;;;;4056625;29;20044;-55
2023/08/10 09:51:43;;;;;;;2.78;1.50;;;24.90;93.30;;;;;;4057795;29;20125;-55
2023/08/10 09:53:47;;;;;;;;;;;24.80;93.00;;;;;;4053337;29;20444;-54
2023/08/10 09:55:49;;;;;;;6.80;1.67;;;24.80;93.30;;;;;;4052819;29;19930;-55
2023/08/10 09:57:52;;;;;;;3.88;1.45;;;24.80;93.20;;;;;;4066857;29;20120;-54
2023/08/10 09:59:54;;;;;;;3.92;1.52;;;24.90;93.30;;;;;;4051527;29;20072;-54
2023/08/10 10:01:57;;;;;;;4.63;1.83;;;25.00;93.40;;;;;;4045288;29;20053;-55
2023/08/10 10:03:59;;;;;;;5.75;1.40;;;25.10;93.00;;;;;;4041567;29;20048;-53
2023/08/10 10:06:02;;;;;;;10.88;2.13;;;25.10;92.80;;;;;;4052656;29;20049;-54
2023/08/10 10:08:05;;;;;;;2.92;1.77;;;25.10;92.90;;;;;;4052819;29;20150;-55
2023/08/10 10:10:12;;;;;;;5.40;1.55;;;25.10;92.40;;;;;;4051746;29;20045;-59
2023/08/10 10:12:14;;;;;;;2.90;1.55;;;25.00;92.40;;;;;;4047405;29;20120;-57
2023/08/10 10:14:19;;;;;;;1.88;1.33;;;25.00;92.80;;;;;;4054264;29;20131;-57
2023/08/10 10:16:21;;;;;;;3.45;1.48;;;24.90;92.90;;;;;;4056244;29;20124;-56
2023/08/10 10:18:25;;;;;;;6.90;1.35;;;24.90;93.00;;;;;;4061353;29;20060;-54
2023/08/10 10:20:27;;;;;;;3.47;1.60;;;24.90;93.30;;;;;;4060852;29;20059;-54
2023/08/10 10:22:30;;;;;;;2.22;1.38;;;24.90;93.20;;;;;;4060606;29;20059;-55
2023/08/10 10:24:33;;;;;;;4.93;1.98;;;24.80;92.60;;;;;;4058826;29;20044;-76
2023/08/10 10:26:38;;;;;;;3.85;1.90;;;24.90;92.90;;;;;;4056211;29;20522;-79
2023/08/10 10:28:40;;;;;;;4.43;1.50;;;24.90;93.50;;;;;;4053702;29;20493;-79
2023/08/10 10:30:54;;;;;;;4.57;1.48;;;25.00;93.00;;;;;;4055656;29;20396;-77
2023/08/10 10:32:57;;;;;;;2.30;1.40;;;25.10;92.80;;;;;;4054621;29;20045;-77
2023/08/10 10:34:59;;;;;;;6.35;1.60;;;25.20;93.10;;;;;;4055680;29;20053;-76
2023/08/10 10:37:09;;;;;;;3.92;1.80;;;25.30;92.70;;;;;;4056145;29;20058;-72
2023/08/10 10:39:20;;;;;;;4.03;1.33;;;25.40;92.90;;;;;;4071817;29;20052;-73